Time;durP1;ratioP1;P1;durP2;ratioP2;P2;SDS_P1;SDS_P2;PMS_P1;PMS_P2;Temp;Humidity;BMP_temperature;BMP_pressure;BME280_temperature;BME280_humidity;BME280_pressure;Samples;Min_cycle;Max_cycle;Signal;HPM_P1;HPM_P2
2022/10/05 00:00:35;;;;;;;2.10;1.08;;;;;;;26.09;41.71;101544.91;5012973;28;20080;-50
2022/10/05 00:03:10;;;;;;;1.50;0.80;;;;;;;26.00;41.89;101543.88;5013177;28;20029;-50
2022/10/05 00:05:39;;;;;;;1.77;0.80;;;;;;;26.05;41.73;101545.75;5013019;28;20033;-50
2022/10/05 00:08:13;;;;;;;2.03;1.02;;;;;;;26.07;41.81;101545.75;5013067;28;20482;-50
2022/10/05 00:10:42;;;;;;;2.35;0.95;;;;;;;26.03;41.66;101543.94;5013210;28;20026;-50
2022/10/05 00:13:15;;;;;;;1.88;0.90;;;;;;;26.03;41.60;101543.94;5014178;28;20022;-51
2022/10/05 00:15:43;;;;;;;1.67;0.80;;;;;;;26.02;41.77;101535.19;5014252;28;20045;-49
2022/10/05 00:18:16;;;;;;;2.30;0.73;;;;;;;25.90;41.83;101529.72;5014063;28;20084;-51
2022/10/05 00:20:45;;;;;;;1.60;0.75;;;;;;;25.96;41.64;101528.97;5014035;28;20033;-50
2022/10/05 00:23:32;;;;;;;1.52;0.73;;;;;;;25.96;41.77;101526.34;5014083;28;20030;-51
2022/10/05 00:26:11;;;;;;;1.80;0.65;;;;;;;25.97;41.83;101531.59;5013915;28;20064;-49
2022/10/05 00:28:41;;;;;;;0.98;0.65;;;;;;;26.01;41.75;101514.09;5012709;28;20018;-48
2022/10/05 00:31:31;;;;;;;2.03;0.82;;;;;;;25.96;41.84;101508.81;5013914;28;20085;-47
2022/10/05 00:33:59;;;;;;;2.25;0.70;;;;;;;25.95;41.83;101512.28;5012503;28;20025;-47
2022/10/05 00:36:28;;;;;;;2.50;0.88;;;;;;;25.91;41.70;101506.13;5013827;28;20033;-49
2022/10/05 00:38:57;;;;;;;1.92;0.73;;;;;;;25.95;41.90;101514.91;5013908;28;20010;-51
2022/10/05 00:41:38;;;;;;;3.65;0.85;;;;;;;25.94;41.81;101502.63;5013640;28;20053;-53
2022/10/05 00:44:34;;;;;;;2.40;0.98;;;;;;;25.96;41.53;101508.81;5012540;28;20468;-51
2022/10/05 00:47:25;;;;;;;3.10;1.00;;;;;;;25.93;41.85;101508.75;5010546;28;20491;-49
2022/10/05 00:50:32;;;;;;;1.33;0.80;;;;;;;25.99;41.62;101503.59;5007285;28;20501;-50
2022/10/05 00:53:23;;;;;;;1.33;0.85;;;;;;;26.02;41.50;101495.75;5013541;28;20061;-47
2022/10/05 00:56:02;;;;;;;2.00;0.85;;;;;;;26.02;41.67;101506.25;5009171;28;20038;-49
2022/10/05 00:58:49;;;;;;;0.95;0.65;;;;;;;25.99;41.71;101502.69;5012238;28;20033;-48
2022/10/05 01:01:27;;;;;;;2.35;0.68;;;;;;;26.02;41.35;101500.09;5013305;28;20034;-52
2022/10/05 01:04:14;;;;;;;2.80;1.13;;;;;;;26.03;41.60;101505.41;5013343;28;20022;-47
2022/10/05 01:06:53;;;;;;;2.20;0.82;;;;;;;25.92;41.78;101497.38;5009481;28;20550;-52
2022/10/05 01:09:42;;;;;;;2.22;0.90;;;;;;;25.91;41.50;101500.84;5013194;28;20472;-48
2022/10/05 01:12:16;;;;;;;2.42;0.70;;;;;;;25.94;41.59;101497.38;5013192;28;20030;-50
2022/10/05 01:14:56;;;;;;;2.47;0.63;;;;;;;25.99;41.40;101494.81;5012046;28;20064;-51
2022/10/05 01:17:33;;;;;;;3.05;0.98;;;;;;;25.92;41.78;101489.47;5011954;28;20487;-49
2022/10/05 01:20:02;;;;;;;2.85;0.77;;;;;;;26.00;41.41;101488.69;5012020;28;20022;-51
2022/10/05 01:22:58;;;;;;;1.50;0.77;;;;;;;25.93;41.60;101478.09;5013061;28;20076;-51
2022/10/05 01:25:46;;;;;;;1.92;0.75;;;;;;;25.92;41.65;101481.59;5010486;28;20058;-49
2022/10/05 01:28:24;;;;;;;1.85;0.77;;;;;;;25.91;41.76;101479.81;5004971;28;20033;-51
2022/10/05 01:31:03;;;;;;;2.72;0.75;;;;;;;25.95;41.52;101467.59;5011960;28;20085;-51
2022/10/05 01:33:56;;;;;;;2.55;1.13;;;;;;;25.91;41.47;101464.06;5011788;28;20022;-48
2022/10/05 01:36:25;;;;;;;1.90;0.70;;;;;;;25.99;41.32;101465.88;5009115;28;20129;-51
2022/10/05 01:39:07;;;;;;;1.75;0.77;;;;;;;25.93;41.54;101467.59;5012906;28;20030;-51
2022/10/05 01:41:46;;;;;;;2.20;0.90;;;;;;;25.90;41.51;101461.41;5011353;28;20050;-51
2022/10/05 01:44:20;;;;;;;3.35;0.70;;;;;;;25.96;41.43;101455.34;5011578;28;20480;-52
2022/10/05 01:46:50;;;;;;;2.65;0.95;;;;;;;25.94;41.63;101456.22;5011338;28;20041;-51
2022/10/05 01:49:38;;;;;;;1.92;0.80;;;;;;;25.87;41.91;101450.88;5012841;28;20395;-51
2022/10/05 01:52:42;;;;;;;1.27;0.60;;;;;;;25.90;41.54;101441.25;5009606;28;20042;-51
2022/10/05 01:55:19;;;;;;;1.88;0.80;;;;;;;25.85;41.40;101436.81;5009470;28;20054;-51
2022/10/05 01:58:26;;;;;;;3.30;1.00;;;;;;;25.90;41.66;101435.09;5014803;28;20030;-51
2022/10/05 02:01:21;;;;;;;2.42;0.98;;;;;;;25.88;41.59;101421.97;5012804;28;20041;-50
2022/10/05 02:04:05;;;;;;;2.38;0.80;;;;;;;25.86;41.89;101418.44;5011664;28;20480;-51
2022/10/05 02:06:39;;;;;;;1.90;0.70;;;;;;;25.88;41.62;101415.84;5016416;28;20037;-52
2022/10/05 02:09:15;;;;;;;1.73;0.60;;;;;;;25.88;41.72;101416.69;5016512;28;20036;-48
2022/10/05 02:11:49;;;;;;;2.92;0.80;;;;;;;25.84;41.57;101403.50;5015270;28;20105;-48
2022/10/05 02:14:22;;;;;;;1.50;0.60;;;;;;;25.83;41.87;101402.63;4999129;28;20053;-52
2022/10/05 02:16:53;;;;;;;3.55;0.80;;;;;;;25.88;41.75;101400.94;5015220;28;20383;-49
2022/10/05 02:19:32;;;;;;;2.65;0.85;;;;;;;25.85;41.57;101394.78;5015085;28;20026;-50
2022/10/05 02:22:07;;;;;;;3.13;0.65;;;;;;;25.84;41.61;101396.50;5014961;28;20057;-51
2022/10/05 02:24:40;;;;;;;2.15;0.85;;;;;;;25.83;41.69;101384.22;4999347;28;20022;-50
2022/10/05 02:27:11;;;;;;;1.55;0.60;;;;;;;25.85;41.69;101390.38;5016116;28;20097;-51
2022/10/05 02:29:43;;;;;;;1.67;0.70;;;;;;;25.79;41.78;101393.81;5015127;28;20022;-48
2022/10/05 02:32:33;;;;;;;1.45;0.70;;;;;;;25.82;41.89;101386.84;5015831;28;20014;-47
2022/10/05 02:35:04;;;;;;;2.58;0.70;;;;;;;25.83;41.82;101380.72;5016072;28;20467;-49
2022/10/05 02:38:10;;;;;;;1.95;0.50;;;;;;;25.89;41.70;101378.19;5014889;28;20072;-50
2022/10/05 02:40:58;;;;;;;1.80;0.65;;;;;;;25.86;41.56;101381.63;5015314;28;20059;-51
2022/10/05 02:44:04;;;;;;;1.30;0.70;;;;;;;25.81;41.64;101367.56;5012289;28;20042;-50
2022/10/05 02:46:49;;;;;;;1.38;0.60;;;;;;;25.79;41.79;101370.16;5018390;28;20450;-50
2022/10/05 02:49:36;;;;;;;;;;;;;;;25.85;41.50;101365.84;5015132;28;20022;-50
2022/10/05 02:52:25;;;;;;;2.03;0.80;;;;;;;25.82;41.58;101358.81;5015775;28;19913;-51
2022/10/05 02:55:05;;;;;;;1.65;0.70;;;;;;;25.77;41.81;101360.50;5014726;28;20029;-52
2022/10/05 02:57:56;;;;;;;1.17;0.77;;;;;;;25.80;41.65;101363.19;5014475;28;20026;-48
2022/10/05 03:00:26;;;;;;;4.28;0.57;;;;;;;25.84;41.66;101358.84;5009115;28;20038;-52
2022/10/05 03:03:04;;;;;;;1.80;1.00;;;;;;;25.85;41.40;101365.84;5014474;28;20030;-48
2022/10/05 03:05:49;;;;;;;1.73;1.05;;;;;;;25.79;41.64;101362.28;5015563;28;20541;-50
2022/10/05 03:08:30;;;;;;;3.30;0.73;;;;;;;25.73;41.45;101350.81;5013724;28;20036;-52
2022/10/05 03:11:23;;;;;;;1.30;0.55;;;;;;;25.79;41.67;101362.28;5015452;28;20037;-48
2022/10/05 03:14:17;;;;;;;3.05;0.75;;;;;;;25.80;41.85;101365.81;5011579;28;20117;-48
2022/10/05 03:17:04;;;;;;;2.50;0.80;;;;;;;25.80;41.58;101365.81;5009687;28;20041;-48
2022/10/05 03:20:01;;;;;;;2.50;0.57;;;;;;;25.79;41.58;101361.41;5015404;28;20029;-48
2022/10/05 03:22:59;;;;;;;2.38;0.77;;;;;;;25.78;41.54;101359.66;5014750;28;20036;-47
2022/10/05 03:25:52;;;;;;;1.98;0.73;;;;;;;25.74;41.87;101352.59;5015187;28;20024;-49
2022/10/05 03:28:27;;;;;;;1.67;0.63;;;;;;;25.77;41.64;101358.75;5013530;28;20045;-52
2022/10/05 03:31:17;;;;;;;2.08;0.90;;;;;;;25.76;41.76;101356.97;5013985;28;20068;-47
2022/10/05 03:34:00;;;;;;;2.53;0.73;;;;;;;25.75;41.89;101351.72;5014692;28;20547;-50
2022/10/05 03:36:54;;;;;;;0.95;0.40;;;;;;;25.78;41.64;101357.03;5014818;28;20034;-47
2022/10/05 03:39:38;;;;;;;2.47;0.70;;;;;;;25.80;41.49;101350.03;5011784;28;20033;-48
2022/10/05 03:42:14;;;;;;;0.90;0.53;;;;;;;25.76;41.51;101348.25;5014741;28;20144;-48
2022/10/05 03:45:05;;;;;;;1.23;0.70;;;;;;;25.78;41.51;101351.78;5014922;28;20112;-50
2022/10/05 03:47:36;;;;;;;1.48;0.65;;;;;;;25.78;41.39;101357.03;5013540;28;20030;-48
2022/10/05 03:50:24;;;;;;;1.35;0.60;;;;;;;25.77;41.61;101360.50;5014891;28;20022;-52
2022/10/05 03:53:00;;;;;;;1.40;0.63;;;;;;;25.73;41.77;101354.31;5014469;28;20383;-48
2022/10/05 03:55:48;;;;;;;1.30;0.60;;;;;;;25.73;41.51;101353.44;5013399;28;20108;-47
2022/10/05 03:58:21;;;;;;;2.40;0.60;;;;;;;25.72;41.51;101354.31;5014395;28;20034;-48
2022/10/05 04:00:54;;;;;;;1.27;0.60;;;;;;;25.74;41.62;101357.84;4996764;28;20484;-51
2022/10/05 04:03:30;;;;;;;1.23;0.55;;;;;;;25.72;41.73;101349.97;5014522;28;20352;-48
2022/10/05 04:06:13;;;;;;;2.42;0.70;;;;;;;25.70;41.74;101350.78;5013204;28;20053;-47
2022/10/05 04:09:01;;;;;;;1.85;0.57;;;;;;;25.72;41.67;101352.59;5014478;28;20057;-47
2022/10/05 04:11:38;;;;;;;2.70;0.57;;;;;;;25.70;41.64;101354.31;5013825;28;20045;-50
2022/10/05 04:14:11;;;;;;;1.80;0.95;;;;;;;25.65;41.82;101349.88;5013262;28;20056;-48
2022/10/05 04:16:43;;;;;;;1.38;0.52;;;;;;;25.71;41.67;101356.06;5012974;28;20018;-47
2022/10/05 04:19:35;;;;;;;1.52;0.57;;;;;;;25.70;41.68;101358.66;5014366;28;20026;-47
2022/10/05 04:22:23;;;;;;;1.05;0.55;;;;;;;25.65;41.73;101340.22;5013229;28;20435;-47
2022/10/05 04:24:59;;;;;;;0.82;0.50;;;;;;;25.63;41.55;101347.19;5014091;28;20030;-48
2022/10/05 04:27:32;;;;;;;2.55;0.70;;;;;;;25.57;41.72;101326.09;5012839;28;20026;-48
2022/10/05 04:30:07;;;;;;;1.60;0.70;;;;;;;25.62;41.64;101335.81;5014176;28;20117;-48
2022/10/05 04:32:41;;;;;;;1.05;0.40;;;;;;;25.69;41.74;101339.41;5012790;28;20388;-48
2022/10/05 04:35:33;;;;;;;1.98;0.63;;;;;;;25.68;41.64;101332.38;5012570;28;20030;-47
2022/10/05 04:38:21;;;;;;;1.90;0.70;;;;;;;25.68;41.59;101337.63;5014020;28;20506;-48
2022/10/05 04:41:18;;;;;;;2.67;0.80;;;;;;;25.68;41.44;101334.09;5013632;28;20053;-51
2022/10/05 04:43:57;;;;;;;1.15;0.60;;;;;;;25.65;41.80;101342.84;5010811;28;20034;-52
2022/10/05 04:46:28;;;;;;;2.50;0.60;;;;;;;25.67;41.80;101338.50;5013602;28;20502;-51
2022/10/05 04:49:23;;;;;;;2.00;0.63;;;;;;;25.70;41.43;101335.91;5013857;28;20053;-51
2022/10/05 04:52:07;;;;;;;2.22;0.57;;;;;;;25.71;41.51;101331.53;5013458;28;20037;-50
2022/10/05 04:55:02;;;;;;;1.52;0.75;;;;;;;25.71;41.56;101323.66;5013314;28;20079;-47
2022/10/05 04:57:39;;;;;;;2.58;0.70;;;;;;;25.65;41.56;101332.34;5013287;28;20053;-50
2022/10/05 05:00:21;;;;;;;1.58;0.60;;;;;;;25.65;41.65;101331.47;5013610;28;20025;-49
2022/10/05 05:03:08;;;;;;;1.20;0.60;;;;;;;25.62;41.54;101324.41;4996126;28;20038;-51
2022/10/05 05:06:02;;;;;;;1.60;0.57;;;;;;;25.63;41.54;101336.69;5013351;28;20104;-49
2022/10/05 05:08:39;;;;;;;2.20;0.60;;;;;;;25.57;41.78;101327.00;5009487;28;20038;-51
2022/10/05 05:11:14;;;;;;;3.13;0.77;;;;;;;25.59;41.35;101322.66;5011818;28;20053;-51
2022/10/05 05:14:09;;;;;;;1.75;0.63;;;;;;;25.58;41.45;101314.72;5013292;28;20026;-52
2022/10/05 05:16:44;;;;;;;1.00;0.50;;;;;;;25.59;41.45;101327.91;5009267;28;20045;-50
2022/10/05 05:19:19;;;;;;;2.22;0.80;;;;;;;25.63;41.43;101329.72;5012155;28;20065;-48
2022/10/05 05:22:07;;;;;;;1.45;0.52;;;;;;;25.63;41.48;101324.44;5013101;28;20438;-50
2022/10/05 05:24:44;;;;;;;3.28;0.90;;;;;;;25.66;41.65;101327.94;5012622;28;20041;-48
2022/10/05 05:27:46;;;;;;;7.70;0.70;;;;;;;25.61;41.77;101318.28;5013001;28;20052;-51
2022/10/05 05:30:16;;;;;;;1.92;0.65;;;;;;;25.63;41.51;101320.94;5004000;28;20072;-49
2022/10/05 05:33:16;;;;;;;3.03;0.88;;;;;;;25.58;41.57;101318.25;5012809;28;20091;-50
2022/10/05 05:36:08;;;;;;;3.08;1.08;;;;;;;25.62;41.44;101321.78;5012118;28;20048;-48
2022/10/05 05:38:58;;;;;;;3.92;0.65;;;;;;;25.61;41.66;101317.41;5011595;28;20037;-48
2022/10/05 05:41:37;;;;;;;2.92;0.57;;;;;;;25.57;41.74;101312.97;5014668;28;20545;-50
2022/10/05 05:44:24;;;;;;;2.85;0.50;;;;;;;25.56;41.75;101306.84;5012718;28;20053;-47
2022/10/05 05:47:15;;;;;;;2.33;0.68;;;;;;;25.60;41.62;101313.91;5012674;28;20022;-47
2022/10/05 05:49:44;;;;;;;3.10;0.55;;;;;;;25.61;41.70;101314.78;5012924;28;20034;-51
2022/10/05 05:52:39;;;;;;;2.45;0.82;;;;;;;25.62;41.86;101314.81;5012850;28;20041;-49
2022/10/05 05:55:27;;;;;;;1.45;0.65;;;;;;;25.65;41.58;101311.31;5012660;28;20061;-50
2022/10/05 05:58:29;;;;;;;4.78;0.93;;;;;;;25.62;41.67;101316.53;5009398;28;20033;-50
2022/10/05 06:01:03;;;;;;;2.10;0.70;;;;;;;25.57;41.48;101305.09;5010735;28;20393;-49
2022/10/05 06:03:52;;;;;;;4.78;1.20;;;;;;;25.60;41.62;101311.28;5011349;28;20022;-48
2022/10/05 06:06:24;;;;;;;3.38;0.82;;;;;;;25.64;41.43;101314.81;5008411;28;20042;-47
2022/10/05 06:08:57;;;;;;;3.05;0.70;;;;;;;25.66;41.76;101305.22;5011370;28;20026;-49
2022/10/05 06:11:31;;;;;;;3.70;0.93;;;;;;;25.70;41.45;101314.00;5010998;28;20472;-47
2022/10/05 06:14:04;;;;;;;4.72;0.88;;;;;;;25.70;41.52;101308.75;5012655;28;20111;-47
2022/10/05 06:16:57;;;;;;;4.50;1.08;;;;;;;25.71;41.43;101314.03;5012665;28;20037;-48
2022/10/05 06:19:28;;;;;;;3.47;1.00;;;;;;;25.72;41.37;101315.78;5011140;28;20120;-49
2022/10/05 06:22:04;;;;;;;3.05;1.05;;;;;;;25.70;41.27;101319.25;5011080;28;20033;-48
2022/10/05 06:24:38;;;;;;;1.88;0.68;;;;;;;25.66;41.31;101325.31;5011393;28;20030;-48
2022/10/05 06:27:17;;;;;;;2.50;0.68;;;;;;;25.62;41.55;101324.41;5011092;28;20022;-47
2022/10/05 06:30:06;;;;;;;5.93;1.58;;;;;;;25.71;41.34;101331.53;5011217;28;20030;-47
2022/10/05 06:32:58;;;;;;;2.65;0.70;;;;;;;25.70;41.56;101321.88;4995003;28;20484;-47
2022/10/05 06:36:04;;;;;;;3.95;1.13;;;;;;;25.69;41.39;101330.63;5011928;28;20038;-49
2022/10/05 06:39:05;;;;;;;4.45;1.13;;;;;;;25.70;41.41;101333.28;5011405;28;20034;-48
2022/10/05 06:42:12;;;;;;;3.20;0.90;;;;;;;25.74;41.46;101328.94;5009213;28;20155;-50
2022/10/05 06:44:47;;;;;;;4.22;1.50;;;;;;;25.72;41.58;101323.69;5017036;28;20042;-51
2022/10/05 06:47:29;;;;;;;6.35;1.00;;;;;;;25.66;41.28;101328.84;5014568;28;20021;-51
2022/10/05 06:50:04;;;;;;;3.72;1.00;;;;;;;25.68;41.67;101340.25;5015911;28;20029;-49
2022/10/05 06:53:11;;;;;;;3.47;1.10;;;;;;;25.79;41.37;101332.50;5014765;28;20059;-50
2022/10/05 06:55:43;;;;;;;8.15;1.58;;;;;;;25.76;41.54;101332.47;5014048;28;20125;-48
2022/10/05 06:58:34;;;;;;;6.53;1.42;;;;;;;25.74;41.36;101324.56;5015727;28;20038;-48
2022/10/05 07:01:10;;;;;;;7.70;1.70;;;;;;;25.74;41.28;101344.69;5011739;28;20041;-49
2022/10/05 07:03:51;;;;;;;9.35;1.60;;;;;;;25.82;41.12;101343.03;5014440;28;20026;-51
2022/10/05 07:06:38;;;;;;;8.73;1.00;;;;;;;25.90;41.07;101336.13;4998088;28;20026;-49
2022/10/05 07:09:26;;;;;;;5.85;1.38;;;;;;;25.86;41.37;101343.97;4994559;28;20114;-49
2022/10/05 07:12:10;;;;;;;9.93;1.80;;;;;;;25.75;41.44;101342.09;5014376;28;20042;-49
2022/10/05 07:15:05;;;;;;;9.67;1.43;;;;;;;25.74;41.55;101344.69;5015469;28;20030;-48
2022/10/05 07:17:44;;;;;;;11.70;2.13;;;;;;;25.77;41.63;101350.88;5015089;28;20482;-51
2022/10/05 07:20:33;;;;;;;13.60;1.52;;;;;;;25.83;41.17;101344.78;5014153;28;20033;-47
2022/10/05 07:23:14;;;;;;;12.57;2.17;;;;;;;25.84;41.41;101349.19;5015156;28;20034;-49
2022/10/05 07:26:14;;;;;;;6.78;1.75;;;;;;;25.82;41.23;101353.53;5015172;28;20488;-48
2022/10/05 07:28:45;;;;;;;8.07;1.65;;;;;;;25.80;41.36;101350.03;5013127;28;20618;-49
2022/10/05 07:31:15;;;;;;;9.48;1.80;;;;;;;25.83;41.42;101357.94;5015090;28;20069;-50
2022/10/05 07:33:57;;;;;;;10.63;1.90;;;;;;;25.80;41.34;101357.94;5013992;28;20384;-51
2022/10/05 07:39:54;;;;;;;4.72;1.30;;;;;;;25.78;41.40;101352.63;5010366;28;20068;-47
2022/10/05 07:42:44;;;;;;;7.00;1.42;;;;;;;25.84;41.45;101358.84;5014430;28;20060;-49
2022/10/05 07:45:50;;;;;;;3.05;1.08;;;;;;;25.85;41.29;101358.84;5014163;28;20034;-49
2022/10/05 07:48:22;;;;;;;10.63;2.08;;;;;;;25.83;41.48;101359.69;5017438;28;20034;-51
2022/10/05 07:51:04;;;;;;;4.88;1.40;;;;;;;25.79;41.55;101369.31;5014785;28;20483;-48
2022/10/05 07:53:40;;;;;;;7.68;1.85;;;;;;;25.79;41.69;101364.91;5013606;28;20058;-48
2022/10/05 07:56:25;;;;;;;6.18;1.30;;;;;;;25.86;41.36;101363.22;5014541;28;21133;-48
2022/10/05 07:59:01;;;;;;;7.70;1.67;;;;;;;25.85;41.48;101371.13;5013530;28;20033;-50
2022/10/05 08:01:32;;;;;;;6.55;1.42;;;;;;;25.83;41.57;101376.34;5014614;28;20423;-47
2022/10/05 08:04:24;;;;;;;9.25;1.80;;;;;;;25.85;41.50;101373.75;5014521;28;20394;-51
2022/10/05 08:07:13;;;;;;;9.68;2.13;;;;;;;25.82;41.58;101378.97;5014312;28;20033;-53
2022/10/05 08:09:51;;;;;;;7.85;1.70;;;;;;;25.75;41.85;101380.63;5014311;28;20030;-48
2022/10/05 08:12:20;;;;;;;8.18;1.90;;;;;;;25.81;41.49;101392.97;5014058;28;20030;-48
2022/10/05 08:14:56;;;;;;;6.93;1.65;;;;;;;25.76;41.73;101387.66;5014009;28;20076;-51
2022/10/05 08:17:34;;;;;;;5.00;1.42;;;;;;;25.78;41.82;101389.44;5014239;28;20504;-49
2022/10/05 08:20:16;;;;;;;5.82;1.75;;;;;;;25.77;41.70;101385.03;5014164;28;20033;-48
2022/10/05 08:22:50;;;;;;;5.40;1.42;;;;;;;25.82;41.72;101390.34;5014009;28;20041;-48
2022/10/05 08:25:41;;;;;;;10.93;1.73;;;;;;;25.84;41.62;101390.38;5014271;28;20042;-48
2022/10/05 08:28:18;;;;;;;8.52;2.10;;;;;;;25.92;41.42;101391.31;5021046;28;20562;-48
2022/10/05 08:31:07;;;;;;;6.53;2.17;;;;;;;25.88;41.50;101403.56;5012279;28;20483;-49
2022/10/05 08:33:44;;;;;;;7.30;1.80;;;;;;;25.90;41.46;101404.47;5012607;28;20101;-49
2022/10/05 08:36:14;;;;;;;9.23;2.03;;;;;;;25.93;41.44;101396.63;5012265;28;20413;-47
2022/10/05 08:38:41;;;;;;;5.72;1.67;;;;;;;25.82;41.64;101389.47;5013479;28;20030;-48
2022/10/05 08:41:36;;;;;;;11.13;1.42;;;;;;;25.84;41.54;101407.00;5012069;28;20085;-51
2022/10/05 08:44:23;;;;;;;7.53;1.55;;;;;;;25.88;41.46;101400.06;5012437;28;20021;-53
2022/10/05 08:47:15;;;;;;;10.98;1.60;;;;;;;25.84;41.57;101401.75;5012914;28;20026;-52
2022/10/05 08:50:02;;;;;;;7.00;1.40;;;;;;;25.87;41.58;101403.56;5009357;28;20042;-53
2022/10/05 08:52:42;;;;;;;6.28;1.60;;;;;;;25.84;41.67;101396.50;5012029;28;20424;-51
2022/10/05 08:55:29;;;;;;;9.80;1.55;;;;;;;25.91;41.77;101406.22;5011867;28;20037;-48
2022/10/05 08:58:25;;;;;;;5.75;1.63;;;;;;;25.94;41.70;101406.28;5011324;28;20038;-50
2022/10/05 09:01:02;;;;;;;4.47;1.27;;;;;;;25.85;41.64;101408.78;5012195;28;20030;-50
2022/10/05 09:03:53;;;;;;;6.85;2.08;;;;;;;25.81;42.06;101414.88;5012081;28;20101;-51
2022/10/05 09:06:41;;;;;;;11.25;1.75;;;;;;;25.82;41.95;101423.63;5008463;28;20049;-51
2022/10/05 09:09:29;;;;;;;8.15;1.60;;;;;;;25.87;41.61;101424.59;5011618;28;20496;-52
2022/10/05 09:12:01;;;;;;;6.22;1.85;;;;;;;25.92;41.61;101418.50;5012904;28;20385;-49
2022/10/05 09:15:07;;;;;;;8.00;1.98;;;;;;;25.84;41.59;101414.03;5013245;28;20080;-52
2022/10/05 09:17:54;;;;;;;11.48;2.78;;;;;;;25.93;41.47;101415.03;5012647;28;20459;-50
2022/10/05 09:20:31;;;;;;;9.23;2.58;;;;;;;25.95;41.41;101420.28;5012755;28;20033;-52
2022/10/05 09:22:59;;;;;;;12.10;2.33;;;;;;;25.92;41.43;101418.50;4995692;28;20423;-50
2022/10/05 09:25:32;;;;;;;8.45;1.98;;;;;;;25.90;41.30;101425.50;5013082;28;20034;-52
2022/10/05 09:28:25;;;;;;;10.35;2.58;;;;;;;25.83;41.58;101420.13;5012860;28;20069;-52
2022/10/05 09:31:25;;;;;;;13.07;2.53;;;;;;;25.83;41.72;101423.63;5012770;28;20030;-53
2022/10/05 09:34:12;;;;;;;14.15;2.38;;;;;;;25.86;41.42;101428.06;5010273;28;20093;-51
2022/10/05 09:37:09;;;;;;;17.83;3.22;;;;;;;25.84;41.52;101424.53;5012427;28;20030;-51
2022/10/05 09:40:15;;;;;;;13.55;2.28;;;;;;;25.77;41.71;101418.31;5012163;28;20030;-50
2022/10/05 09:43:15;;;;;;;12.70;2.55;;;;;;;25.81;41.64;101421.88;5024893;28;20056;-52
2022/10/05 09:46:02;;;;;;;11.18;2.65;;;;;;;25.85;41.57;101427.16;5029774;28;20064;-50
2022/10/05 09:48:33;;;;;;;10.27;2.30;;;;;;;25.84;41.52;101424.53;5031612;28;20052;-48
2022/10/05 09:51:22;;;;;;;7.75;2.40;;;;;;;25.84;41.25;101435.91;5032528;28;20037;-53
2022/10/05 09:53:50;;;;;;;14.07;2.15;;;;;;;25.90;41.29;101432.47;5032451;28;20064;-49
2022/10/05 09:56:26;;;;;;;14.40;2.72;;;;;;;25.84;41.35;101422.78;5032337;28;20104;-51
2022/10/05 09:59:31;;;;;;;11.00;2.20;;;;;;;25.84;41.54;101435.91;5032408;28;20026;-52
2022/10/05 10:02:00;;;;;;;12.23;2.75;;;;;;;25.85;41.42;101435.06;5031962;28;20069;-49
2022/10/05 10:05:07;;;;;;;9.55;2.20;;;;;;;25.83;41.51;101444.66;5032137;28;20041;-49
2022/10/05 10:08:07;;;;;;;8.98;2.30;;;;;;;25.84;41.09;101445.56;5031481;28;20041;-49
2022/10/05 10:10:49;;;;;;;6.43;1.80;;;;;;;25.83;41.26;101449.91;5031936;28;20095;-49
2022/10/05 10:13:44;;;;;;;12.80;2.63;;;;;;;25.83;41.36;101449.91;5032494;28;20026;-49
2022/10/05 10:16:36;;;;;;;9.65;2.67;;;;;;;25.84;41.37;101442.94;5032323;28;20022;-48
2022/10/05 10:19:13;;;;;;;10.30;2.20;;;;;;;25.82;41.16;101448.16;5034063;28;20033;-50
2022/10/05 10:21:51;;;;;;;7.30;1.95;;;;;;;25.82;41.27;101450.78;5036320;28;20033;-49
2022/10/05 10:24:31;;;;;;;6.72;2.08;;;;;;;25.77;41.38;101436.72;5035104;28;20040;-51
2022/10/05 10:27:38;;;;;;;9.02;2.17;;;;;;;25.78;41.42;101441.97;5036113;28;20038;-49
2022/10/05 10:30:44;;;;;;;16.73;3.35;;;;;;;25.76;41.60;101445.47;5035662;28;20134;-49
2022/10/05 10:33:35;;;;;;;8.00;2.38;;;;;;;25.76;41.59;101450.72;5025200;28;20037;-48
2022/10/05 10:36:26;;;;;;;10.77;2.83;;;;;;;25.68;41.68;101439.22;5034678;28;20029;-52
2022/10/05 10:39:05;;;;;;;9.00;2.90;;;;;;;25.75;41.44;101455.06;5035188;28;20052;-50
2022/10/05 10:41:49;;;;;;;10.40;2.08;;;;;;;25.77;41.24;101456.00;5035610;28;20487;-49
2022/10/05 10:44:45;;;;;;;13.75;2.55;;;;;;;25.75;41.55;101452.44;5035803;28;20104;-54
2022/10/05 10:47:52;;;;;;;8.30;1.83;;;;;;;25.81;41.47;101458.66;5034561;28;20036;-50
2022/10/05 10:50:48;;;;;;;10.88;2.10;;;;;;;25.70;41.46;101448.00;5035509;28;20061;-51
2022/10/05 10:53:38;;;;;;;11.98;2.65;;;;;;;25.78;41.34;101457.75;5034907;28;20479;-51
2022/10/05 10:56:44;;;;;;;9.70;1.80;;;;;;;25.73;41.54;101472.56;5034436;28;20064;-52
2022/10/05 10:59:50;;;;;;;13.70;3.10;;;;;;;25.74;41.63;101461.19;5030979;28;20049;-52
2022/10/05 11:02:37;;;;;;;15.82;2.80;;;;;;;25.79;41.75;101475.28;5025719;28;20093;-56
2022/10/05 11:05:18;;;;;;;7.70;2.35;;;;;;;25.75;41.85;101477.88;5029115;28;20584;-54
2022/10/05 11:08:23;;;;;;;11.65;2.60;;;;;;;25.77;41.97;101481.41;5030371;28;20061;-51
2022/10/05 11:10:54;;;;;;;10.25;2.38;;;;;;;25.76;41.72;101479.63;5030831;28;20044;-53
2022/10/05 11:13:37;;;;;;;14.82;3.92;;;;;;;25.70;42.14;101479.53;5032340;28;20668;-53
2022/10/05 11:16:17;;;;;;;11.23;2.97;;;;;;;25.79;41.85;101487.56;5032190;28;20159;-50
2022/10/05 11:19:08;;;;;;;12.40;2.85;;;;;;;25.71;41.98;101486.56;5032638;28;20112;-52
2022/10/05 11:22:14;;;;;;;10.57;2.88;;;;;;;25.75;42.01;101491.88;5027709;28;20049;-49
2022/10/05 11:25:20;;;;;;;13.25;3.08;;;;;;;25.69;41.72;101476.03;5031497;28;20041;-49
2022/10/05 11:28:14;;;;;;;11.77;2.60;;;;;;;25.84;41.77;101490.25;5029875;28;20116;-54
2022/10/05 11:31:20;;;;;;;10.40;2.63;;;;;;;25.85;41.67;101486.75;5030443;28;20044;-55
2022/10/05 11:34:02;;;;;;;10.48;2.40;;;;;;;25.86;41.66;101484.13;5028289;28;20041;-56
2022/10/05 11:36:30;;;;;;;8.82;2.50;;;;;;;25.87;41.77;101491.16;5032013;28;20028;-56
2022/10/05 11:39:29;;;;;;;16.48;2.83;;;;;;;25.84;41.85;101496.38;5031237;28;20120;-53
2022/10/05 11:42:17;;;;;;;11.98;3.47;;;;;;;25.82;41.75;101499.84;5030850;28;20053;-53
2022/10/05 11:45:22;;;;;;;11.90;2.80;;;;;;;25.84;41.74;101508.63;5028614;28;20045;-52
2022/10/05 11:48:10;;;;;;;14.55;2.70;;;;;;;25.88;41.62;101507.81;5029922;28;20030;-53
2022/10/05 11:51:03;;;;;;;14.23;3.20;;;;;;;25.87;41.62;101508.69;5028071;28;20471;-54
2022/10/05 11:53:42;;;;;;;12.70;2.63;;;;;;;25.84;41.67;101499.00;5029556;28;20116;-48
2022/10/05 11:56:20;;;;;;;10.63;3.22;;;;;;;25.93;41.49;101509.66;5029790;28;20113;-49
2022/10/05 11:59:10;;;;;;;10.02;2.22;;;;;;;25.94;41.55;101500.00;5032548;28;20029;-49
2022/10/05 12:02:03;;;;;;;11.45;2.60;;;;;;;25.93;41.74;101499.13;5031722;28;20088;-48
2022/10/05 12:04:39;;;;;;;10.38;2.83;;;;;;;25.96;41.77;101497.41;5030333;28;20041;-51
2022/10/05 12:07:12;;;;;;;13.98;3.92;;;;;;;25.90;41.96;101491.22;5029644;28;20430;-49
2022/10/05 12:10:13;;;;;;;13.05;3.08;;;;;;;25.83;42.01;101494.59;5031672;28;20033;-49
2022/10/05 12:12:48;;;;;;;9.23;2.42;;;;;;;25.82;42.15;101499.84;5029532;28;20034;-51
2022/10/05 12:15:23;;;;;;;19.83;3.10;;;;;;;25.81;42.48;101491.09;5031602;28;20524;-47
2022/10/05 12:18:12;;;;;;;12.25;2.70;;;;;;;25.79;42.31;101495.44;5028334;28;20038;-51
2022/10/05 12:20:45;;;;;;;18.15;3.22;;;;;;;25.79;42.47;101496.31;5031280;28;20056;-49
2022/10/05 12:23:15;;;;;;;11.80;3.25;;;;;;;25.84;42.27;101504.25;5030697;28;20053;-49
2022/10/05 12:25:49;;;;;;;10.40;2.67;;;;;;;25.84;42.20;101499.00;5031283;28;20140;-48
2022/10/05 12:28:20;;;;;;;9.15;2.88;;;;;;;25.87;42.20;101496.41;5031773;28;20037;-48
2022/10/05 12:30:56;;;;;;;9.05;2.50;;;;;;;25.88;42.08;101506.06;5032747;28;20487;-48
2022/10/05 12:33:30;;;;;;;15.77;3.92;;;;;;;25.97;42.03;101507.06;5032670;28;20030;-48
2022/10/05 12:36:02;;;;;;;10.80;2.92;;;;;;;25.93;42.21;101512.28;5027681;28;20033;-48
2022/10/05 12:38:49;;;;;;;17.58;3.22;;;;;;;25.73;42.24;101496.22;5032830;28;20109;-49
2022/10/05 12:41:26;;;;;;;10.40;2.78;;;;;;;25.84;42.32;101525.28;5031638;28;20041;-51
2022/10/05 12:44:04;;;;;;;9.13;2.97;;;;;;;25.88;42.09;101555.13;5028680;28;20033;-51